Chester le Street, United Kingdom
Current Conditions -  °F | °C
As of 8:50 AM on Friday 31 Oct 2014 (Local Time) from EGNT Reporting Station
Few Clouds Few Clouds  
Wind Chill: 59°   Ceiling: Unl
Heat Index: 59°   Visibility: 5mi
Dew Point: 55°   Wind: 9mph
Humidity: 88%   Direction: 180°S
Pressure: 29.85"   Gusts: NA
Location:  54.9°N, 1.58°W
Report Text: EGNT 310850Z 18008KT 150V210 8000 FEW025 15/13 Q1011
Loading
Personal Weather Stations






























Interactive Weather Map
Tropical Storm Tracking
New forecast layout! Learn more

10-Day Weather Forecast

Advertisements
Track Severe Weather on mobile